M I D A S
Marine Information and Data Acquisition System
Tripno 517 of the Zeeleeuw from 2003-06-17 06:38:05 to 2003-06-17 13:34:09
Back to CruiseResearch ActivitiesStationsMapUnderway DataData graphs

EquipmentUnitsComment
TimeDGPSUTC
LatitudeDGPSDM.mWGS84
LongitudeDGPSDM.mWGS84
HeadingGyrodeg 
SOGDGPSknotsSpeed over ground
COGDGPSdegCourse over ground
DepthEcho soundermeters200 kHz
Missing or incorrect values are displayed as -999
Navigation data collected by the RV Zeeleeuw from 2003-06-17 06:38:05 to 2003-06-17 13:34:09
                                                                                    Next 1000 lines
Time Latitude Longitude Heading SOG COG Depth
2003-06-17 06:38:13 51°13.61 2°56.09 125.8   314 7.2
2003-06-17 06:38:17 51°13.61 2°56.09 125.7   183 5.4
2003-06-17 06:38:25 51°13.61 2°56.09 125.5   134 7.1
2003-06-17 06:38:29 51°13.61 2°56.09 125.4 0.1 138 7.2
2003-06-17 06:38:33 51°13.61 2°56.09 125 0.1 132 7.2
2003-06-17 06:38:39 51°13.61 2°56.09 124.6 0.1 137 5.4
2003-06-17 06:38:45 51°13.61 2°56.09 124.1 0.1 167 7.2
2003-06-17 06:38:49 51°13.61 2°56.09 123.3   223 5.3
2003-06-17 06:38:53 51°13.61 2°56.09 122.8 0.1 213 7.2
2003-06-17 06:38:57 51°13.61 2°56.09 121.9 0.1 193 7.3
2003-06-17 06:39:05 51°13.61 2°56.09 121.3 0.1 202 7.3
2003-06-17 06:39:09 51°13.61 2°56.09 120.7 0.1 198 7.2
2003-06-17 06:39:13 51°13.61 2°56.09 119.9 0.1 197 7.3
2003-06-17 06:39:19 51°13.61 2°56.09 119 0.1 197 7.4
2003-06-17 06:39:25 51°13.61 2°56.09 118.3 0.1 193 7.3
2003-06-17 06:39:29 51°13.61 2°56.09 117.5 0.1 200 7.3
2003-06-17 06:39:33 51°13.61 2°56.09 116.7   212 7.3
2003-06-17 06:39:37 51°13.61 2°56.09 116.1 0.1 195 7.4
2003-06-17 06:39:43 51°13.61 2°56.09 115.3   214 7.3
2003-06-17 06:39:49 51°13.61 2°56.09 114.5 0.1 205 7.3
2003-06-17 06:39:53 51°13.61 2°56.09 113.9 0.1 193 7.4
2003-06-17 06:39:59 51°13.61 2°56.09 113 0.1 206 7.4
2003-06-17 06:40:05 51°13.61 2°56.09 112.3   186 5.5
2003-06-17 06:40:09 51°13.61 2°56.09 111.7 0.1 194 7.6
2003-06-17 06:40:13 51°13.61 2°56.09 111 0.1 204 5.5
2003-06-17 06:40:17 51°13.61 2°56.09 110.1 0.1 189 7.5
2003-06-17 06:40:25 51°13.61 2°56.09 109.5 0.1 214 7.5
2003-06-17 06:40:29 51°13.61 2°56.09 108.8 0.1 238 7.6
2003-06-17 06:40:33 51°13.61 2°56.09 108.3 0.1 280 7.5
2003-06-17 06:40:39 51°13.61 2°56.09 108 0.3 287 7.6
2003-06-17 06:40:45 51°13.61 2°56.08 107.7 0.6 286 7.7
2003-06-17 06:40:49 51°13.61 2°56.08 107.5 0.7 288 7.6
2003-06-17 06:40:53 51°13.61 2°56.08 107.4 0.9 290 7.7
2003-06-17 06:40:57 51°13.61 2°56.08 107.4 1.1 289 8
2003-06-17 06:41:05 51°13.61 2°56.07 107.4 1.3 288 7.9
2003-06-17 06:41:09 51°13.61 2°56.07 107.4 1.5 288 5
2003-06-17 06:41:15 51°13.61 2°56.07 107.4 1.7 288 -999
2003-06-17 06:41:21 51°13.61 2°56.06 107.2 1.8 289 -999
2003-06-17 06:41:25 51°13.61 2°56.06 106.8 1.9 288 -999
2003-06-17 06:41:31 51°13.61 2°56.06 106.3 2 287 -999
2003-06-17 06:41:37 51°13.61 2°56.05 105.9 2.1 285 -999
2003-06-17 06:41:41 51°13.61 2°56.05 105.3 2.3 285 -999
2003-06-17 06:41:47 51°13.61 2°56.04 105 2.5 284 -999
2003-06-17 06:41:53 51°13.62 2°56.03 104.8 2.7 284 -999
2003-06-17 06:41:57 51°13.62 2°56.03 104.8 2.9 282 -999
2003-06-17 06:42:03 51°13.62 2°56.02 104.9 3.1 282 -999
2003-06-17 06:42:07 51°13.62 2°56.01 105.4 3.2 281 -999
2003-06-17 06:42:13 51°13.62 2°56.01 106 3.3 282 -999
2003-06-17 06:42:19 51°13.62 2°56 107.1 3.5 282 -999
2003-06-17 06:42:23 51°13.62 2°55.99 108.6 3.6 284 -999
2003-06-17 06:42:29 51°13.62 2°55.98 110.4 3.7 286 -999
2003-06-17 06:42:33 51°13.62 2°55.97 112.6 3.7 288 -999
2003-06-17 06:42:39 51°13.63 2°55.97 114.6 3.8 289 -999
2003-06-17 06:42:43 51°13.63 2°55.96 116.3 3.9 292 -999
2003-06-17 06:42:49 51°13.63 2°55.95 118.3 3.9 293 -999
2003-06-17 06:42:53 51°13.63 2°55.94 119.9 3.9 295 -999
2003-06-17 06:42:59 51°13.64 2°55.93 121.4 4 297 -999
2003-06-17 06:43:03 51°13.64 2°55.93 122.7 4 299 -999
2003-06-17 06:43:09 51°13.64 2°55.92 123.8 4 300 -999
2003-06-17 06:43:13 51°13.64 2°55.91 124.6 4 301 -999
2003-06-17 06:43:19 51°13.65 2°55.9 125 4 301 -999
2003-06-17 06:43:23 51°13.65 2°55.9 125.4 4 303 -999
2003-06-17 06:43:29 51°13.65 2°55.89 125.5 4 302 -999
2003-06-17 06:43:33 51°13.65 2°55.88 125.5 4 303 -999
2003-06-17 06:43:39 51°13.66 2°55.87 125.2 4 303 -999
2003-06-17 06:43:43 51°13.66 2°55.87 124.8 4 302 -999
2003-06-17 06:43:49 51°13.66 2°55.86 124.1 4 301 -999
2003-06-17 06:43:53 51°13.67 2°55.85 123 4 301 -999
2003-06-17 06:43:59 51°13.67 2°55.84 122 4 300 -999
2003-06-17 06:44:03 51°13.67 2°55.84 121.3 4 300 -999
2003-06-17 06:44:09 51°13.67 2°55.83 120.4 4 299 -999
2003-06-17 06:44:13 51°13.68 2°55.82 119.6 4 299 -999
2003-06-17 06:44:19 51°13.68 2°55.81 118.8 3.9 298 -999
2003-06-17 06:44:23 51°13.68 2°55.81 117.6 3.7 298 -999
2003-06-17 06:44:29 51°13.68 2°55.8 117 3.6 297 -999
2003-06-17 06:44:33 51°13.69 2°55.79 116.2 3.5 297 -999
2003-06-17 06:44:39 51°13.69 2°55.79 115.5 3.1 295 -999
2003-06-17 06:44:43 51°13.69 2°55.78 114 2.7 296 -999
2003-06-17 06:44:49 51°13.69 2°55.78 112.1 2.4 294 11.7
2003-06-17 06:44:53 51°13.69 2°55.77 111 2.1 295 12
2003-06-17 06:44:57 51°13.69 2°55.77 109.1 1.9 296 12.2
2003-06-17 06:45:01 51°13.69 2°55.77 107.3 1.3 296 12
2003-06-17 06:45:05 51°13.7 2°55.77 104 0.7 328 12
2003-06-17 06:45:11 51°13.7 2°55.77 98.7 0.5 358 12.2
2003-06-17 06:45:15 51°13.7 2°55.77 92.2 0.6 24 12.7
2003-06-17 06:45:19 51°13.7 2°55.77 85.8 0.8 42 12.6
2003-06-17 06:45:25 51°13.7 2°55.77 79.1 1.1 48 12.6
2003-06-17 06:45:29 51°13.7 2°55.77 72.5 1.3 48 12.2
2003-06-17 06:45:33 51°13.7 2°55.77 66 1.4 46 11.9
2003-06-17 06:45:39 51°13.7 2°55.78 60.2 1.6 41 11.7
2003-06-17 06:45:45 51°13.7 2°55.78 54.6 1.6 35 11.6
2003-06-17 06:45:49 51°13.71 2°55.78 49.7 1.6 32 11.4
2003-06-17 06:45:53 51°13.71 2°55.78 45.7 1.6 30 11.2
2003-06-17 06:45:57 51°13.71 2°55.78 42.9 1.5 24 11
2003-06-17 06:46:05 51°13.71 2°55.78 40.6 1.3 20 11.1
2003-06-17 06:46:09 51°13.71 2°55.78 37.9 1.1 15 10.9
2003-06-17 06:46:13 51°13.71 2°55.79 35.2 1 12 10.8
2003-06-17 06:46:17 51°13.71 2°55.79 32.9 0.8 2 10.9
2003-06-17 06:46:25 51°13.72 2°55.79 31.1 0.5 350 10.9
2003-06-17 06:46:29 51°13.72 2°55.78 29.7 0.4 331 10.9
2003-06-17 06:46:33 51°13.72 2°55.78 28.5 0.3 308 10.7
2003-06-17 06:46:39 51°13.72 2°55.78 27.7 0.4 268 10.7
2003-06-17 06:46:45 51°13.72 2°55.78 26.9 0.5 246 10.7
2003-06-17 06:46:49 51°13.72 2°55.78 26.3 0.7 238 10.9
2003-06-17 06:46:53 51°13.72 2°55.78 25.8 0.9 226 11
2003-06-17 06:46:59 51°13.71 2°55.78 25.2 1.1 221 -999
2003-06-17 06:47:05 51°13.71 2°55.78 24.6 1.3 218 -999
2003-06-17 06:47:11 51°13.71 2°55.77 23.9 1.5 216 -999
2003-06-17 06:47:15 51°13.71 2°55.77 23.1 1.7 213 -999
2003-06-17 06:47:21 51°13.71 2°55.77 22.1 1.8 210 -999
2003-06-17 06:47:27 51°13.7 2°55.77 21.2 2 208 -999
2003-06-17 06:47:31 51°13.7 2°55.77 20.2 2 206 -999
2003-06-17 06:47:37 51°13.7 2°55.76 19.1 1.9 207 -999
2003-06-17 06:47:43 51°13.7 2°55.76 18.1 1.8 207 -999
2003-06-17 06:47:47 51°13.69 2°55.76 17.1 1.6 208 -999
2003-06-17 06:47:53 51°13.69 2°55.76 15.5 1.2 210 -999
2003-06-17 06:47:57 51°13.69 2°55.76 13.5 1 213 -999
2003-06-17 06:48:03 51°13.69 2°55.76 11.2 0.7 225 -999
2003-06-17 06:48:09 51°13.69 2°55.76 8.6 0.4 259 -999
2003-06-17 06:48:13 51°13.69 2°55.75 5.7 0.5 297 12.1
2003-06-17 06:48:19 51°13.69 2°55.75 2.7 0.8 327 -999
2003-06-17 06:48:23 51°13.69 2°55.75 0.6 1.1 333 -999
2003-06-17 06:48:29 51°13.69 2°55.75 355.9 1.5 335 -999
2003-06-17 06:48:33 51°13.7 2°55.75 350.4 1.8 335 12
2003-06-17 06:48:39 51°13.7 2°55.75 345.6 2.2 333 4.6
2003-06-17 06:48:43 51°13.7 2°55.74 341.1 2.5 330 -999
2003-06-17 06:48:49 51°13.71 2°55.74 337.9 2.9 329 -999
2003-06-17 06:48:53 51°13.71 2°55.74 335.5 3.4 328 -999
2003-06-17 06:48:59 51°13.72 2°55.73 334.4 3.8 327 10.6
2003-06-17 06:49:03 51°13.72 2°55.73 333.8 4.1 327 10
2003-06-17 06:49:07 51°13.72 2°55.72 333.9 4.3 328 9.9
2003-06-17 06:49:11 51°13.73 2°55.72 334.5 4.6 328 9.6
2003-06-17 06:49:15 51°13.73 2°55.72 334.8 4.9 328 9.5
2003-06-17 06:49:21 51°13.74 2°55.71 334.9 5.1 329 9.6
2003-06-17 06:49:25 51°13.74 2°55.7 334.9 5.3 328 9.7
2003-06-17 06:49:29 51°13.75 2°55.7 334.9 5.5 329 10.1
2003-06-17 06:49:33 51°13.75 2°55.69 335 5.7 328 10
2003-06-17 06:49:39 51°13.76 2°55.69 335.5 5.9 330 10.1
2003-06-17 06:49:45 51°13.77 2°55.68 336.3 6.1 331 10.1
2003-06-17 06:49:49 51°13.78 2°55.67 337.4 6.3 332 10.1
2003-06-17 06:49:53 51°13.78 2°55.67 338.2 6.4 333 10.2
2003-06-17 06:49:57 51°13.79 2°55.66 338.9 6.5 334 10
2003-06-17 06:50:03 51°13.8 2°55.65 339.6 6.7 334 10
2003-06-17 06:50:09 51°13.81 2°55.65 340 6.7 335 10
2003-06-17 06:50:13 51°13.82 2°55.64 339.9 6.8 334 10
2003-06-17 06:50:19 51°13.83 2°55.63 339.9 6.9 335 9.9
2003-06-17 06:50:25 51°13.84 2°55.62 340.1 7 335 9.8
2003-06-17 06:50:29 51°13.84 2°55.62 340.8 7.1 335 9.4
2003-06-17 06:50:33 51°13.85 2°55.61 341.1 7.2 335 9.3
2003-06-17 06:50:39 51°13.86 2°55.61 341.1 7.2 336 9.8
2003-06-17 06:50:45 51°13.87 2°55.6 341.1 7.3 335 10
2003-06-17 06:50:49 51°13.88 2°55.59 340.8 7.4 335 10.2
2003-06-17 06:50:53 51°13.89 2°55.59 340.8 7.4 335 10.2
2003-06-17 06:50:59 51°13.9 2°55.58 340.8 7.4 335 10.1
2003-06-17 06:51:05 51°13.91 2°55.57 340.5 7.5 335 10.2
2003-06-17 06:51:09 51°13.92 2°55.56 340.5 7.5 335 10.3
2003-06-17 06:51:13 51°13.93 2°55.56 340.8 7.6 335 10.2
2003-06-17 06:51:19 51°13.94 2°55.55 341.1 7.6 336 10.3
2003-06-17 06:51:25 51°13.95 2°55.54 341.1 7.6 336 10.3
2003-06-17 06:51:29 51°13.96 2°55.54 340.8 7.6 335 10.2
2003-06-17 06:51:33 51°13.96 2°55.53 340.5 7.6 335 10.1
2003-06-17 06:51:39 51°13.98 2°55.52 340.5 7.6 335 10.2
2003-06-17 06:51:45 51°13.99 2°55.51 340.4 7.6 335 10.1
2003-06-17 06:51:49 51°14 2°55.51 340.4 7.7 335 10.1
2003-06-17 06:51:53 51°14 2°55.5 340.5 7.7 335 10.1
2003-06-17 06:51:59 51°14.01 2°55.49 340.5 7.7 335 10.2
2003-06-17 06:52:05 51°14.03 2°55.49 340.7 7.7 335 10.3
2003-06-17 06:52:09 51°14.03 2°55.48 341.1 7.7 336 10
2003-06-17 06:52:13 51°14.04 2°55.47 341.3 7.7 335 10
2003-06-17 06:52:19 51°14.05 2°55.47 341.4 7.7 336 9.9
2003-06-17 06:52:25 51°14.07 2°55.46 341.6 7.7 336 9.9
2003-06-17 06:52:29 51°14.07 2°55.45 341.8 7.8 336 9.6
2003-06-17 06:52:33 51°14.08 2°55.45 342 7.9 336 10
2003-06-17 06:52:39 51°14.09 2°55.44 342 7.9 336 10.1
2003-06-17 06:52:45 51°14.11 2°55.43 341.8 8 336 10
2003-06-17 06:52:49 51°14.11 2°55.42 341.8 8 336 10
2003-06-17 06:52:53 51°14.12 2°55.42 341.7 8.2 336 10.2
2003-06-17 06:52:57 51°14.13 2°55.41 340.7 8.3 335 10
2003-06-17 06:53:05 51°14.15 2°55.4 339.7 8.4 333 10.2
2003-06-17 06:53:09 51°14.16 2°55.39 339.1 8.5 333 10.3
2003-06-17 06:53:13 51°14.16 2°55.39 338.2 8.6 333 10.4
2003-06-17 06:53:19 51°14.18 2°55.37 337 8.7 331 10.4
2003-06-17 06:53:25 51°14.19 2°55.36 335.6 8.7 329 10.5
2003-06-17 06:53:29 51°14.2 2°55.35 334 8.8 328 10.2
2003-06-17 06:53:33 51°14.21 2°55.35 332.3 8.8 327 10.2
2003-06-17 06:53:37 51°14.21 2°55.34 330.5 8.9 324 10.3
2003-06-17 06:53:45 51°14.23 2°55.32 328.6 9 322 10.2
2003-06-17 06:53:49 51°14.24 2°55.31 326.7 9 321 10.2
2003-06-17 06:53:53 51°14.25 2°55.3 324.7 9.1 319 10.3
2003-06-17 06:53:59 51°14.26 2°55.28 322.8 9.1 317 10.4
2003-06-17 06:54:05 51°14.27 2°55.26 320.8 9.2 314 10.4
2003-06-17 06:54:09 51°14.27 2°55.25 318.9 9.2 313 10.3
2003-06-17 06:54:13 51°14.28 2°55.24 317.2 9.3 312 10.1
2003-06-17 06:54:17 51°14.29 2°55.23 315.7 9.3 310 9.9
2003-06-17 06:54:25 51°14.3 2°55.2 315 9.4 309 10.1
2003-06-17 06:54:29 51°14.31 2°55.19 314.2 9.6 308 10.2
2003-06-17 06:54:33 51°14.32 2°55.17 312.8 9.7 307 10.3
2003-06-17 06:54:37 51°14.32 2°55.16 311.5 9.8 305 10.2
2003-06-17 06:54:45 51°14.33 2°55.13 308.7 9.9 301 9.6
2003-06-17 06:54:49 51°14.34 2°55.11 304.6 9.9 299 9.2
2003-06-17 06:54:53 51°14.34 2°55.1 301.7 9.9 295 9.1
2003-06-17 06:54:59 51°14.35 2°55.07 298.1 10 293 9.8
2003-06-17 06:55:05 51°14.36 2°55.05 296.8 10.1 292 9.5
2003-06-17 06:55:09 51°14.36 2°55.03 296.8 10.3 291 9.2
2003-06-17 06:55:15 51°14.37 2°55.01 296.8 10.4 291 8.9
2003-06-17 06:55:19 51°14.37 2°54.99 296.9 10.5 291 8.8
2003-06-17 06:55:25 51°14.38 2°54.96 296.8 10.7 290 8.9
2003-06-17 06:55:29 51°14.38 2°54.95 296.8 10.7 290 9.1
2003-06-17 06:55:33 51°14.38 2°54.93 297.1 10.8 290 9.3
2003-06-17 06:55:37 51°14.39 2°54.91 298 10.9 291 9.4
2003-06-17 06:55:45 51°14.4 2°54.87 298.8 11 292 9.4
2003-06-17 06:55:49 51°14.4 2°54.85 299.5 11.1 292 9.4
2003-06-17 06:55:53 51°14.41 2°54.84 299.3 11.1 291 9.3
2003-06-17 06:55:57 51°14.41 2°54.82 296.4 11.2 288 9
2003-06-17 06:56:05 51°14.42 2°54.78 292.1 11.3 283 9.2
2003-06-17 06:56:09 51°14.42 2°54.76 287.9 11.3 280 9.2
2003-06-17 06:56:13 51°14.42 2°54.74 284.9 11.5 277 9.2
2003-06-17 06:56:19 51°14.42 2°54.71 283.1 11.5 276 9.3
2003-06-17 06:56:25 51°14.42 2°54.68 282.4 11.6 275 9.3
2003-06-17 06:56:29 51°14.42 2°54.66 281.7 11.7 275 9.4
2003-06-17 06:56:33 51°14.43 2°54.64 281.1 11.8 274 9.3
2003-06-17 06:56:39 51°14.43 2°54.61 280.5 11.9 273 9.2
2003-06-17 06:56:45 51°14.43 2°54.57 280.5 12 273 9.5
2003-06-17 06:56:49 51°14.43 2°54.55 280.6 12 274 9.2
2003-06-17 06:56:53 51°14.43 2°54.53 280.1 12 273 9.4
2003-06-17 06:56:57 51°14.43 2°54.51 279.3 12.1 272 9.5
2003-06-17 06:57:05 51°14.43 2°54.47 278.9 12.2 272 9.5
2003-06-17 06:57:09 51°14.43 2°54.45 278.7 12.2 272 9.5
2003-06-17 06:57:13 51°14.43 2°54.42 278.6 12.3 271 9.4
2003-06-17 06:57:19 51°14.43 2°54.39 276.7 12.4 270 8.9
2003-06-17 06:57:25 51°14.43 2°54.36 273 12.4 264 8.7
2003-06-17 06:57:29 51°14.43 2°54.34 268.7 12.4 262 8.5
2003-06-17 06:57:33 51°14.42 2°54.32 264.8 12.4 258 8.4
2003-06-17 06:57:37 51°14.42 2°54.29 259.7 12.4 253 8.3
2003-06-17 06:57:45 51°14.41 2°54.25 254.7 12.4 247 8.3
2003-06-17 06:57:49 51°14.4 2°54.23 250.4 12.4 245 8.4
2003-06-17 06:57:53 51°14.4 2°54.21 247.5 12.5 243 8.2
2003-06-17 06:57:59 51°14.39 2°54.19 245.4 12.6 241 8.3
2003-06-17 06:58:05 51°14.38 2°54.16 245 12.7 242 8.2
2003-06-17 06:58:09 51°14.37 2°54.14 244.1 12.7 240 8.2
2003-06-17 06:58:13 51°14.36 2°54.12 244.3 12.7 242 8.3
2003-06-17 06:58:19 51°14.35 2°54.09 244.9 12.8 241 8.2
2003-06-17 06:58:25 51°14.34 2°54.06 244.8 12.8 241 8.2
2003-06-17 06:58:29 51°14.34 2°54.04 243.1 12.9 238 8.2
2003-06-17 06:58:33 51°14.33 2°54.02 240.5 12.9 237 8.2
2003-06-17 06:58:39 51°14.32 2°53.99 239.1 13 236 8.2
2003-06-17 06:58:45 51°14.3 2°53.96 239 13.2 236 8.2
2003-06-17 06:58:49 51°14.3 2°53.94 239.6 13.2 236 8.2
2003-06-17 06:58:53 51°14.29 2°53.92 239.6 13.3 237 8.1
2003-06-17 06:58:57 51°14.28 2°53.9 239.3 13.4 236 8.1
2003-06-17 06:59:05 51°14.26 2°53.86 238.4 13.5 235 8.2
2003-06-17 06:59:09 51°14.25 2°53.84 238.4 13.6 235 8.2
2003-06-17 06:59:13 51°14.24 2°53.82 238.8 13.7 235 8.1
2003-06-17 06:59:17 51°14.24 2°53.8 239.1 13.8 235 8.2
2003-06-17 06:59:25 51°14.22 2°53.76 240.3 13.8 238 8.1
2003-06-17 06:59:29 51°14.21 2°53.74 240.4 13.8 236 8.2
2003-06-17 06:59:33 51°14.2 2°53.72 240.7 13.8 237 8.1
2003-06-17 06:59:39 51°14.19 2°53.69 240.2 13.9 236 8.1
2003-06-17 06:59:45 51°14.18 2°53.66 240.1 14 237 8.1
2003-06-17 06:59:49 51°14.17 2°53.64 240.7 14 237 8.2
2003-06-17 06:59:55 51°14.16 2°53.61 240.8 14 237 8.2
2003-06-17 06:59:59 51°14.15 2°53.59 241 14.1 237 8.2
2003-06-17 07:00:05 51°14.13 2°53.56 240.5 14 236 8.2
2003-06-17 07:00:09 51°14.13 2°53.54 239.2 14.1 235 8.2
2003-06-17 07:00:13 51°14.12 2°53.52 237.4 14 233 8.2
2003-06-17 07:00:19 51°14.1 2°53.49 234.6 14.1 231 8.3
2003-06-17 07:00:25 51°14.09 2°53.46 234.1 14.1 232 8.1
2003-06-17 07:00:29 51°14.08 2°53.44 235 14.1 232 8.2
2003-06-17 07:00:33 51°14.07 2°53.42 237.9 14.3 236 8.3
2003-06-17 07:00:37 51°14.06 2°53.4 241 14.2 238 8.2
2003-06-17 07:00:45 51°14.04 2°53.36 241.3 14.2 237 8.3
2003-06-17 07:00:49 51°14.03 2°53.33 242.6 14.2 239 8.3
2003-06-17 07:00:53 51°14.03 2°53.31 242.3 14.3 237 8.3
2003-06-17 07:00:57 51°14.02 2°53.29 241 14.3 237 8.4
2003-06-17 07:01:05 51°14 2°53.25 239.9 14.3 235 8.4
2003-06-17 07:01:09 51°13.99 2°53.23 239.1 14.3 235 8.4
2003-06-17 07:01:13 51°13.98 2°53.21 239.2 14.5 236 8.4
2003-06-17 07:01:19 51°13.97 2°53.18 240.1 14.4 237 8.4
2003-06-17 07:01:25 51°13.95 2°53.14 239.7 14.5 236 8.5
2003-06-17 07:01:29 51°13.95 2°53.12 240.1 14.5 237 8.4
2003-06-17 07:01:33 51°13.94 2°53.1 240.5 14.5 237 8.5
2003-06-17 07:01:39 51°13.92 2°53.07 240.9 14.6 237 8.6
2003-06-17 07:01:45 51°13.91 2°53.04 241.4 14.6 237 8.6
2003-06-17 07:01:49 51°13.9 2°53.01 241 14.6 237 8.6
2003-06-17 07:01:53 51°13.89 2°52.99 240.5 14.6 237 8.6
2003-06-17 07:01:59 51°13.88 2°52.96 239.9 14.7 236 8.7
2003-06-17 07:02:05 51°13.87 2°52.93 239.4 14.7 235 8.7
2003-06-17 07:02:09 51°13.86 2°52.91 239 14.8 235 8.7
2003-06-17 07:02:13 51°13.85 2°52.89 239.1 14.8 235 8.8
2003-06-17 07:02:19 51°13.83 2°52.85 239.5 14.8 236 8.7
2003-06-17 07:02:25 51°13.82 2°52.82 239.5 14.8 236 8.7
2003-06-17 07:02:29 51°13.81 2°52.8 239.6 14.9 236 8.8
2003-06-17 07:02:35 51°13.8 2°52.77 239.6 14.9 236 8.7
2003-06-17 07:02:39 51°13.79 2°52.74 239.5 15 236 8.8
2003-06-17 07:02:45 51°13.77 2°52.71 240.2 15 237 8.8
2003-06-17 07:02:49 51°13.76 2°52.69 240.4 14.9 237 8.8
2003-06-17 07:02:53 51°13.75 2°52.67 240.6 15 237 8.8
2003-06-17 07:02:57 51°13.75 2°52.64 241.1 15 237 8.7
2003-06-17 07:03:05 51°13.73 2°52.6 241.1 15 237 8.8
2003-06-17 07:03:09 51°13.72 2°52.58 241.1 15.1 237 8.8
2003-06-17 07:03:13 51°13.71 2°52.55 240.6 15.1 237 8.8
2003-06-17 07:03:17 51°13.7 2°52.53 240.2 15.1 236 8.7
2003-06-17 07:03:25 51°13.68 2°52.49 239.7 15.1 236 8.7
2003-06-17 07:03:29 51°13.67 2°52.47 238.7 15.1 235 8.7
2003-06-17 07:03:33 51°13.66 2°52.44 238.5 15 235 8.8
2003-06-17 07:03:37 51°13.65 2°52.42 238.2 15.1 234 9
2003-06-17 07:03:45 51°13.63 2°52.38 239.1 15.1 236 8.9
2003-06-17 07:03:49 51°13.62 2°52.36 239.5 15.2 236 8.9
2003-06-17 07:03:53 51°13.61 2°52.33 240.8 15.2 238 9
2003-06-17 07:03:59 51°13.6 2°52.3 241.3 15.2 238 9
2003-06-17 07:04:05 51°13.59 2°52.27 241.6 15.1 238 9
2003-06-17 07:04:09 51°13.58 2°52.24 241.4 15.2 238 9
2003-06-17 07:04:13 51°13.57 2°52.22 241.2 15.2 237 9
2003-06-17 07:04:17 51°13.56 2°52.2 240.4 15.1 237 9
2003-06-17 07:04:25 51°13.54 2°52.15 239.5 15.1 235 9
2003-06-17 07:04:29 51°13.53 2°52.13 239.1 15.1 236 9
2003-06-17 07:04:33 51°13.52 2°52.11 238.7 15.2 235 8.9
2003-06-17 07:04:37 51°13.51 2°52.09 238.3 15.1 235 9
2003-06-17 07:04:45 51°13.49 2°52.04 238.2 15.1 235 8.9
2003-06-17 07:04:49 51°13.48 2°52.02 238.5 15.1 235 9
2003-06-17 07:04:53 51°13.47 2°52 239.3 15 236 8.9
2003-06-17 07:04:59 51°13.46 2°51.97 239.7 15.1 236 9
2003-06-17 07:05:05 51°13.45 2°51.93 240.9 15.1 238 9
2003-06-17 07:05:09 51°13.44 2°51.91 241.3 15 237 8.9
2003-06-17 07:05:13 51°13.43 2°51.89 241.4 15 238 9
2003-06-17 07:05:19 51°13.42 2°51.85 241.6 15.1 238 8.9
2003-06-17 07:05:25 51°13.4 2°51.82 241.6 15 237 8.8
2003-06-17 07:05:29 51°13.39 2°51.8 240.9 15 237 8.9
2003-06-17 07:05:33 51°13.38 2°51.78 240.6 15.1 237 8.9
2003-06-17 07:05:37 51°13.37 2°51.75 239.8 15 236 8.8
2003-06-17 07:05:45 51°13.36 2°51.71 238.7 14.9 235 8.8
2003-06-17 07:05:49 51°13.35 2°51.69 238.5 15 235 8.9
2003-06-17 07:05:53 51°13.34 2°51.67 238.5 15.1 235 8.9
2003-06-17 07:05:57 51°13.33 2°51.65 238.9 15 236 8.8
2003-06-17 07:06:05 51°13.31 2°51.6 238.9 15 235 8.8
2003-06-17 07:06:09 51°13.3 2°51.58 239.6 15.1 237 8.8
2003-06-17 07:06:13 51°13.29 2°51.56 240 15.1 236 8.7
2003-06-17 07:06:17 51°13.28 2°51.54 240.5 14.9 237 8.7
2003-06-17 07:06:25 51°13.26 2°51.49 240.7 15 237 8.7
2003-06-17 07:06:29 51°13.25 2°51.47 240.8 15.1 237 8.9
2003-06-17 07:06:33 51°13.24 2°51.45 240.9 15 237 8.7
2003-06-17 07:06:39 51°13.23 2°51.41 241 14.9 237 8.7
2003-06-17 07:06:45 51°13.22 2°51.38 240.7 15.1 237 8.8
2003-06-17 07:06:49 51°13.21 2°51.36 241 15 237 8.7
2003-06-17 07:06:53 51°13.2 2°51.34 240.7 15 237 8.8
2003-06-17 07:06:57 51°13.19 2°51.31 240.9 15 237 8.8
2003-06-17 07:07:05 51°13.17 2°51.27 241.6 15 238 8.7
2003-06-17 07:07:09 51°13.16 2°51.25 243.1 15 240 8.7
2003-06-17 07:07:13 51°13.16 2°51.22 244.7 15 241 8.8
2003-06-17 07:07:17 51°13.15 2°51.2 245.8 15 242 8.8
2003-06-17 07:07:25 51°13.13 2°51.15 247 15 243 8.8
2003-06-17 07:07:29 51°13.12 2°51.13 247.5 15 243 8.7
2003-06-17 07:07:33 51°13.12 2°51.11 247 15 242 8.8
2003-06-17 07:07:39 51°13.11 2°51.07 246.9 15 243 8.8
2003-06-17 07:07:45 51°13.09 2°51.03 246.3 15 241 8.8
2003-06-17 07:07:49 51°13.09 2°51.01 245.9 15.1 241 8.9
2003-06-17 07:07:53 51°13.08 2°50.99 245.1 15 241 8.8
2003-06-17 07:07:59 51°13.06 2°50.95 244 15 240 8.9
2003-06-17 07:08:05 51°13.05 2°50.92 244.2 15.1 240 8.9
2003-06-17 07:08:09 51°13.04 2°50.9 243.8 15 240 8.9
2003-06-17 07:08:13 51°13.04 2°50.87 244.1 15 240 8.9
2003-06-17 07:08:19 51°13.02 2°50.84 245.2 15.1 242 9
2003-06-17 07:08:25 51°13.01 2°50.8 245.7 15 242 8.9
2003-06-17 07:08:29 51°13 2°50.78 246.6 15 243 9
2003-06-17 07:08:33 51°13 2°50.76 246.7 15.1 242 8.9
2003-06-17 07:08:39 51°12.98 2°50.72 247.1 15.1 243 9
2003-06-17 07:08:45 51°12.97 2°50.68 247 15 243 8.9
2003-06-17 07:08:49 51°12.97 2°50.66 245.9 15 241 8.9
2003-06-17 07:08:55 51°12.95 2°50.63 245.4 15.1 241 8.9
2003-06-17 07:08:59 51°12.94 2°50.6 245.2 15.1 241 8.9
2003-06-17 07:09:05 51°12.93 2°50.57 244.5 15 240 9
2003-06-17 07:09:09 51°12.92 2°50.55 244.2 15.1 240 9
2003-06-17 07:09:13 51°12.92 2°50.52 244.2 15 240 8.9
2003-06-17 07:09:17 51°12.91 2°50.5 244.3 15 240 9
2003-06-17 07:09:25 51°12.89 2°50.45 244.4 15.1 241 9
2003-06-17 07:09:29 51°12.88 2°50.43 244.9 15.1 241 9
2003-06-17 07:09:33 51°12.87 2°50.41 245.3 15.1 241 9
2003-06-17 07:09:37 51°12.87 2°50.38 245.9 15.1 242 9
2003-06-17 07:09:45 51°12.85 2°50.34 246.2 15.1 242 9
2003-06-17 07:09:49 51°12.84 2°50.31 246.3 15 242 8.9
2003-06-17 07:09:53 51°12.84 2°50.29 245.7 15 242 9
2003-06-17 07:09:57 51°12.83 2°50.27 245.3 15.1 241 9.1
2003-06-17 07:10:05 51°12.81 2°50.22 244.7 15 240 9
2003-06-17 07:10:09 51°12.8 2°50.2 244 15 240 9
2003-06-17 07:10:13 51°12.79 2°50.17 244 15.1 241 9.1
2003-06-17 07:10:19 51°12.78 2°50.14 243.9 15.1 240 9
2003-06-17 07:10:25 51°12.77 2°50.1 243.6 15.1 240 9.1
2003-06-17 07:10:29 51°12.76 2°50.08 243.6 15.1 240 9.1
2003-06-17 07:10:33 51°12.75 2°50.06 244 15.1 240 9
2003-06-17 07:10:37 51°12.74 2°50.04 244.6 15.1 241 9
2003-06-17 07:10:45 51°12.73 2°49.99 245.3 15.1 241 9.1
2003-06-17 07:10:49 51°12.72 2°49.97 246.2 15 242 8.9
2003-06-17 07:10:53 51°12.71 2°49.94 246.4 15.1 242 9
2003-06-17 07:10:57 51°12.7 2°49.92 246.6 15.1 243 9
2003-06-17 07:11:05 51°12.69 2°49.87 246.4 15.1 242 9
2003-06-17 07:11:09 51°12.68 2°49.85 246.4 15.1 242 9.1
2003-06-17 07:11:13 51°12.67 2°49.82 246 15.1 242 9.1
2003-06-17 07:11:19 51°12.66 2°49.79 245.7 15.1 242 9.1
2003-06-17 07:11:25 51°12.65 2°49.75 245.6 15.1 242 9.2
2003-06-17 07:11:29 51°12.64 2°49.73 245.3 15.1 241 9.1
2003-06-17 07:11:33 51°12.63 2°49.71 245.2 15.1 241 9.1
2003-06-17 07:11:39 51°12.62 2°49.67 245.2 15.1 241 9.1
2003-06-17 07:11:45 51°12.61 2°49.64 244.8 15.1 241 9.1
2003-06-17 07:11:49 51°12.6 2°49.61 244.7 15.1 241 9.1
2003-06-17 07:11:53 51°12.59 2°49.59 244.5 15.1 240 9.1
2003-06-17 07:11:57 51°12.58 2°49.57 244.6 15 241 9.1
2003-06-17 07:12:05 51°12.57 2°49.52 245 15 241 9.1
2003-06-17 07:12:09 51°12.56 2°49.5 245.7 15 242 9.1
2003-06-17 07:12:13 51°12.55 2°49.47 246 15 242 9.2
2003-06-17 07:12:17 51°12.54 2°49.45 246.3 15 242 9.1
2003-06-17 07:12:25 51°12.53 2°49.4 246.6 15 242 9.1
2003-06-17 07:12:29 51°12.52 2°49.38 246.6 15 242 9.1
2003-06-17 07:12:33 51°12.51 2°49.36 246 15 242 9.1
2003-06-17 07:12:37 51°12.51 2°49.33 245.4 15 241 9.1
2003-06-17 07:12:45 51°12.49 2°49.29 244.9 15 240 9.2
2003-06-17 07:12:49 51°12.48 2°49.26 244.6 15 241 9.1
2003-06-17 07:12:53 51°12.47 2°49.24 244.2 15 240 9.2
2003-06-17 07:12:59 51°12.46 2°49.21 244.4 15 241 9.1
2003-06-17 07:13:05 51°12.45 2°49.17 244.5 14.9 240 9.2
2003-06-17 07:13:09 51°12.44 2°49.15 244.4 15 241 9.1
2003-06-17 07:13:13 51°12.43 2°49.12 244.5 15 241 9.1
2003-06-17 07:13:17 51°12.42 2°49.1 244.7 15 241 9.1
2003-06-17 07:13:25 51°12.41 2°49.06 244.9 15 241 9.1
2003-06-17 07:13:29 51°12.4 2°49.03 245.4 15 242 9.2
2003-06-17 07:13:33 51°12.39 2°49.01 245.6 15 242 9.1
2003-06-17 07:13:37 51°12.38 2°48.99 245.5 15 241 9.1
2003-06-17 07:13:45 51°12.37 2°48.94 245.3 15.1 241 9.2
2003-06-17 07:13:49 51°12.36 2°48.92 245.3 15 242 9.2
2003-06-17 07:13:53 51°12.35 2°48.89 245.2 15 241 9.2
2003-06-17 07:13:59 51°12.34 2°48.86 245.1 15 241 9.1
2003-06-17 07:14:05 51°12.33 2°48.82 244.6 15 241 9.2
2003-06-17 07:14:09 51°12.32 2°48.8 245.1 15 241 9.3
2003-06-17 07:14:13 51°12.31 2°48.78 245.2 15 241 9.1
2003-06-17 07:14:19 51°12.3 2°48.74 244.7 15 241 9.2
2003-06-17 07:14:25 51°12.29 2°48.71 244.8 15 241 9.2
2003-06-17 07:14:29 51°12.28 2°48.68 245.2 15 241 9.2
2003-06-17 07:14:33 51°12.27 2°48.66 245.1 15 241 9.2
2003-06-17 07:14:37 51°12.26 2°48.64 245.5 15.1 242 9.2
2003-06-17 07:14:45 51°12.25 2°48.59 245.4 15 241 9.3
2003-06-17 07:14:49 51°12.24 2°48.57 245.3 15 241 9.3
2003-06-17 07:14:53 51°12.23 2°48.54 244.6 15 241 9.3
2003-06-17 07:14:57 51°12.22 2°48.52 244.6 15.1 241 9.3
2003-06-17 07:15:05 51°12.21 2°48.47 245.1 15 241 9.2
2003-06-17 07:15:09 51°12.2 2°48.45 245.3 15.1 241 9.3
2003-06-17 07:15:13 51°12.19 2°48.43 246 15.1 242 9.2
2003-06-17 07:15:19 51°12.18 2°48.39 246 15 242 9.2
2003-06-17 07:15:25 51°12.17 2°48.36 246.1 15 242 9.3
2003-06-17 07:15:29 51°12.16 2°48.33 246.2 15.1 242 9.3
2003-06-17 07:15:33 51°12.15 2°48.31 246.2 15.1 242 9.2
2003-06-17 07:15:37 51°12.14 2°48.29 246 15 242 9.3
2003-06-17 07:15:45 51°12.13 2°48.24 245.3 15.1 242 9.2
2003-06-17 07:15:49 51°12.12 2°48.22 245.3 15.1 241 9.2
2003-06-17 07:15:53 51°12.11 2°48.19 245.2 15.1 241 9.2
2003-06-17 07:15:57 51°12.1 2°48.17 244.8 15.1 241 9.2
2003-06-17 07:16:05 51°12.09 2°48.12 244.8 15 241 9.2
2003-06-17 07:16:09 51°12.08 2°48.1 245 15 241 9.2
2003-06-17 07:16:13 51°12.07 2°48.08 245 15 241 9.3
2003-06-17 07:16:19 51°12.06 2°48.04 245.4 15.1 242 9.2
2003-06-17 07:16:25 51°12.05 2°48.01 246 15 242 9.3
2003-06-17 07:16:29 51°12.04 2°47.98 246 15 243 9.3
2003-06-17 07:16:33 51°12.03 2°47.96 246.2 15.1 242 9.2
2003-06-17 07:16:39 51°12.02 2°47.92 246.7 15.1 243 9.3
2003-06-17 07:16:45 51°12.01 2°47.89 246.7 15 242 9.3
2003-06-17 07:16:49 51°12 2°47.86 246.5 15.1 243 9.3
2003-06-17 07:16:53 51°11.99 2°47.84 245.9 15 242 9.3
2003-06-17 07:16:57 51°11.99 2°47.82 245.1 15.1 241 9.3
2003-06-17 07:17:05 51°11.97 2°47.77 244.7 15.1 241 9.3
2003-06-17 07:17:09 51°11.96 2°47.75 244.4 15.1 241 9.1
2003-06-17 07:17:13 51°11.95 2°47.73 244.3 15 241 9.3
2003-06-17 07:17:17 51°11.94 2°47.7 244.5 15 241 9.2
2003-06-17 07:17:25 51°11.93 2°47.66 244.6 15.1 241 9.2
2003-06-17 07:17:29 51°11.92 2°47.63 246.2 15 243 9.2
2003-06-17 07:17:33 51°11.91 2°47.61 247.9 15 245 9.1
2003-06-17 07:17:37 51°11.91 2°47.58 249 15 245 9.1
2003-06-17 07:17:45 51°11.89 2°47.54 250.6 15 247 9.2
2003-06-17 07:17:49 51°11.89 2°47.51 251.1 15 247 9.2
2003-06-17 07:17:53 51°11.88 2°47.49 251.1 15 247 9.1
2003-06-17 07:17:57 51°11.87 2°47.46 251.7 15.1 248 9.2
2003-06-17 07:18:05 51°11.86 2°47.41 252 15 248 9.2
2003-06-17 07:18:09 51°11.86 2°47.39 251.7 15 247 9.2
2003-06-17 07:18:13 51°11.85 2°47.36 251 15.1 247 9.3
2003-06-17 07:18:19 51°11.84 2°47.33 250.6 15.1 246 9.3
2003-06-17 07:18:25 51°11.83 2°47.29 250.2 15 246 9.1
2003-06-17 07:18:29 51°11.82 2°47.27 250.1 15 246 9.1
2003-06-17 07:18:33 51°11.81 2°47.24 250 15.1 246 9.1
2003-06-17 07:18:37 51°11.81 2°47.22 250 15 246 9.1
2003-06-17 07:18:45 51°11.79 2°47.17 249.6 15 246 9.2
2003-06-17 07:18:49 51°11.79 2°47.15 249.7 15.1 246 9.1
2003-06-17 07:18:53 51°11.78 2°47.12 250.3 15 247 9.2
2003-06-17 07:18:57 51°11.77 2°47.1 250.7 15 247 9.2
2003-06-17 07:19:05 51°11.76 2°47.05 251.1 15.1 247 9.2
2003-06-17 07:19:09 51°11.76 2°47.02 251.1 15 247 9.3
2003-06-17 07:19:13 51°11.75 2°47 251.1 15 247 9.3
2003-06-17 07:19:19 51°11.74 2°46.96 250.8 15.1 247 9.2
2003-06-17 07:19:25 51°11.73 2°46.93 250.1 15 246 9.1
2003-06-17 07:19:29 51°11.72 2°46.9 249.6 15 246 9.2
2003-06-17 07:19:33 51°11.72 2°46.88 249.5 15 246 9.3
2003-06-17 07:19:39 51°11.7 2°46.84 249.8 15.1 246 9.2
2003-06-17 07:19:45 51°11.69 2°46.8 250.2 15 246 9.3
2003-06-17 07:19:49 51°11.69 2°46.78 250.4 15.1 247 9.3
2003-06-17 07:19:53 51°11.68 2°46.76 250.7 15.1 247 9.3
2003-06-17 07:19:57 51°11.67 2°46.73 251.2 15 248 9.3
2003-06-17 07:20:05 51°11.66 2°46.68 251.4 15.1 248 9.3
2003-06-17 07:20:09 51°11.66 2°46.66 251.8 15.1 248 9.3
2003-06-17 07:20:13 51°11.65 2°46.63 251.8 15 248 9.3
2003-06-17 07:20:17 51°11.64 2°46.61 251.3 15.1 247 9.4
2003-06-17 07:20:25 51°11.63 2°46.56 250.8 15.1 247 9.4
2003-06-17 07:20:29 51°11.62 2°46.53 250.1 15.1 246 9.4
2003-06-17 07:20:33 51°11.62 2°46.51 249.6 15.1 246 9.5
2003-06-17 07:20:37 51°11.61 2°46.49 249.3 15.1 245 9.5
2003-06-17 07:20:45 51°11.6 2°46.44 249.1 15.1 246 9.6
2003-06-17 07:20:49 51°11.59 2°46.41 249.4 15.1 246 9.5
2003-06-17 07:20:53 51°11.58 2°46.39 249.8 15.1 246 9.5
2003-06-17 07:20:59 51°11.57 2°46.35 250.4 15.1 247 9.6
2003-06-17 07:21:05 51°11.56 2°46.32 250.6 15.1 247 9.6
2003-06-17 07:21:09 51°11.56 2°46.29 250.9 15.1 247 9.6
2003-06-17 07:21:13 51°11.55 2°46.27 251.1 15.1 247 9.6
2003-06-17 07:21:17 51°11.54 2°46.24 251 15.1 247 9.6
2003-06-17 07:21:25 51°11.53 2°46.19 251.1 15.1 247 9.5
2003-06-17 07:21:29 51°11.52 2°46.17 250.4 15.1 246 9.6
2003-06-17 07:21:33 51°11.52 2°46.14 250 15.1 246 9.6
2003-06-17 07:21:39 51°11.51 2°46.11 249.7 15.1 246 9.5
2003-06-17 07:21:45 51°11.5 2°46.07 249.8 15.1 246 9.5
2003-06-17 07:21:49 51°11.49 2°46.05 250.2 15 246 9.5
2003-06-17 07:21:53 51°11.48 2°46.02 250.1 15 246 9.6
2003-06-17 07:21:59 51°11.47 2°45.98 250.3 15.1 247 9.5
2003-06-17 07:22:05 51°11.46 2°45.95 250.4 15.1 247 9.5
2003-06-17 07:22:09 51°11.46 2°45.92 250.3 15 246 9.4
2003-06-17 07:22:13 51°11.45 2°45.9 250.2 15 247 9.5
2003-06-17 07:22:19 51°11.44 2°45.86 250 15.1 246 9.5
2003-06-17 07:22:25 51°11.43 2°45.83 250 15 246 9.5
2003-06-17 07:22:29 51°11.42 2°45.8 249.5 15 246 9.5
2003-06-17 07:22:33 51°11.41 2°45.78 249.4 15.1 246 9.5
2003-06-17 07:22:39 51°11.4 2°45.74 249.7 15.1 246 9.4
2003-06-17 07:22:45 51°11.39 2°45.71 250.3 15.1 247 9.5
2003-06-17 07:22:49 51°11.39 2°45.68 250.4 15.1 247 9.5
2003-06-17 07:22:55 51°11.38 2°45.64 250.6 15 247 9.5
2003-06-17 07:22:57 51°11.37 2°45.63 250.5 15 247 9.5
2003-06-17 07:23:05 51°11.36 2°45.58 250.4 15.1 247 9.4
2003-06-17 07:23:09 51°11.36 2°45.56 250.4 15 247 9.4
2003-06-17 07:23:13 51°11.35 2°45.53 250.4 15 247 9.5
2003-06-17 07:23:17 51°11.34 2°45.51 250.1 15 246 9.4
2003-06-17 07:23:25 51°11.33 2°45.46 250 15.1 247 9.4
2003-06-17 07:23:29 51°11.32 2°45.44 249.7 15.1 246 9.4
2003-06-17 07:23:33 51°11.32 2°45.41 250 15 247 9.3
2003-06-17 07:23:39 51°11.31 2°45.38 250.1 15 246 9.4
2003-06-17 07:23:45 51°11.3 2°45.34 250 15 247 9.5
2003-06-17 07:23:49 51°11.29 2°45.32 250.1 15 247 9.3
2003-06-17 07:23:53 51°11.28 2°45.29 250.2 15 247 9.3
2003-06-17 07:23:59 51°11.27 2°45.25 250.6 15 247 9.4
2003-06-17 07:24:05 51°11.26 2°45.22 251.1 15 247 9.3
2003-06-17 07:24:09 51°11.26 2°45.19 250.6 15 247 9.3
2003-06-17 07:24:13 51°11.25 2°45.17 250.7 15 247 9.3
2003-06-17 07:24:17 51°11.24 2°45.14 250.6 15 247 9.3
2003-06-17 07:24:25 51°11.23 2°45.1 250.4 15 247 9.3
2003-06-17 07:24:29 51°11.22 2°45.07 250.4 15 247 9.3
2003-06-17 07:24:33 51°11.22 2°45.05 250.4 15 247 9.3
2003-06-17 07:24:37 51°11.21 2°45.02 250.2 15 247 9.3
2003-06-17 07:24:45 51°11.2 2°44.97 250.3 15 247 9.2
2003-06-17 07:24:49 51°11.19 2°44.95 250.4 15 247 9.3
2003-06-17 07:24:53 51°11.18 2°44.92 250.4 15 247 9.3
2003-06-17 07:24:57 51°11.18 2°44.9 250.4 15 247 9.2
2003-06-17 07:25:05 51°11.16 2°44.85 250.4 15 247 9.3
2003-06-17 07:25:09 51°11.16 2°44.83 250.3 15 247 9.2
2003-06-17 07:25:13 51°11.15 2°44.8 249.7 14.9 246 9.1
2003-06-17 07:25:19 51°11.14 2°44.77 249.7 15 246 9.2
2003-06-17 07:25:25 51°11.13 2°44.73 250.3 15 247 9.2
2003-06-17 07:25:29 51°11.12 2°44.71 250.8 15 247 9.1
2003-06-17 07:25:33 51°11.12 2°44.68 251 14.9 248 9.1
2003-06-17 07:25:37 51°11.11 2°44.66 251 14.9 247 9.1
2003-06-17 07:25:45 51°11.1 2°44.61 251 15 247 9.2
2003-06-17 07:25:49 51°11.09 2°44.58 250.6 15 247 9.2
2003-06-17 07:25:53 51°11.09 2°44.56 250.2 14.9 246 9.2
2003-06-17 07:25:59 51°11.08 2°44.52 249.9 15 247 9.2
2003-06-17 07:26:05 51°11.07 2°44.49 249.9 15 246 9.1
2003-06-17 07:26:09 51°11.06 2°44.46 249.7 15 246 9.1
2003-06-17 07:26:13 51°11.05 2°44.44 249.9 14.9 246 9.1
2003-06-17 07:26:19 51°11.04 2°44.4 250.4 14.9 247 9.1
2003-06-17 07:26:25 51°11.03 2°44.37 250.7 15 247 9.1
2003-06-17 07:26:29 51°11.03 2°44.34 250.9 15 247 9
2003-06-17 07:26:33 51°11.02 2°44.32 251.1 15 248 9
2003-06-17 07:26:39 51°11.01 2°44.28 250.5 14.9 247 9
2003-06-17 07:26:45 51°11 2°44.24 250.4 14.9 247 9
2003-06-17 07:26:49 51°10.99 2°44.22 250.2 14.9 247 9
2003-06-17 07:26:53 51°10.99 2°44.2 249.8 14.9 246 9
2003-06-17 07:26:59 51°10.98 2°44.16 249.7 14.9 247 8.9
2003-06-17 07:27:05 51°10.97 2°44.12 249.4 14.9 246 8.9
2003-06-17 07:27:09 51°10.96 2°44.1 249.4 14.9 246 8.9
2003-06-17 07:27:13 51°10.95 2°44.07 249.4 14.9 246 8.9
2003-06-17 07:27:19 51°10.95 2°44.04 250.2 14.9 247 8.9
2003-06-17 07:27:25 51°10.94 2°44 250.2 14.9 247 8.9
2003-06-17 07:27:29 51°10.93 2°43.98 250.7 14.9 248 8.9
2003-06-17 07:27:33 51°10.92 2°43.95 251 14.9 247 8.9
2003-06-17 07:27:37 51°10.92 2°43.93 251.6 14.9 248 8.8
2003-06-17 07:27:45 51°10.9 2°43.88 251.3 14.8 247 8.8
2003-06-17 07:27:49 51°10.9 2°43.86 251.1 14.8 248 8.8
2003-06-17 07:27:53 51°10.89 2°43.83 250.6 14.9 247 8.8
2003-06-17 07:27:57 51°10.89 2°43.81 250.1 14.9 247 8.9
2003-06-17 07:28:05 51°10.87 2°43.76 249.7 14.9 246 8.8
2003-06-17 07:28:09 51°10.87 2°43.74 249.5 14.8 246 8.8
2003-06-17 07:28:13 51°10.86 2°43.71 249.4 14.9 246 8.8
2003-06-17 07:28:19 51°10.85 2°43.68 249.4 14.9 246 8.8
2003-06-17 07:28:25 51°10.84 2°43.64 250.4 14.9 247 8.8
2003-06-17 07:28:29 51°10.83 2°43.62 250.5 14.8 247 8.8
2003-06-17 07:28:33 51°10.83 2°43.59 250.9 14.8 248 8.8
2003-06-17 07:28:37 51°10.82 2°43.57 251.3 14.8 248 8.7
2003-06-17 07:28:45 51°10.81 2°43.52 251.7 14.9 249 8.9
2003-06-17 07:28:49 51°10.8 2°43.49 252.2 14.8 249 8.7
2003-06-17 07:28:53 51°10.8 2°43.47 251.8 14.8 248 8.7
2003-06-17 07:28:57 51°10.79 2°43.44 251.5 14.8 248 8.7
2003-06-17 07:29:05 51°10.78 2°43.4 251 14.8 247 8.7
2003-06-17 07:29:09 51°10.77 2°43.37 249.9 14.8 246 8.7
2003-06-17 07:29:13 51°10.76 2°43.35 249.5 14.8 246 8.7
2003-06-17 07:29:19 51°10.75 2°43.31 248.9 14.8 246 8.7
2003-06-17 07:29:25 51°10.74 2°43.28 248.7 14.8 246 8.6
2003-06-17 07:29:29 51°10.74 2°43.25 249 14.8 246 8.6
2003-06-17 07:29:33 51°10.73 2°43.23 249.4 14.8 246 8.6
2003-06-17 07:29:39 51°10.72 2°43.19 250.3 14.7 247 8.7
2003-06-17 07:29:45 51°10.71 2°43.16 251.2 14.8 249 8.6
2003-06-17 07:29:49 51°10.71 2°43.13 251.8 14.8 249 8.6
2003-06-17 07:29:53 51°10.7 2°43.11 252 14.8 249 8.6
2003-06-17 07:29:57 51°10.69 2°43.08 252.2 14.7 248 8.4
2003-06-17 07:30:05 51°10.68 2°43.04 251.6 14.7 248 8.6
2003-06-17 07:30:09 51°10.68 2°43.01 251.1 14.7 248 8.6
2003-06-17 07:30:13 51°10.67 2°42.99 250.2 14.7 247 8.5
2003-06-17 07:30:17 51°10.66 2°42.96 250.3 14.7 247 8.4
2003-06-17 07:30:25 51°10.65 2°42.92 249.7 14.7 247 8.4
2003-06-17 07:30:29 51°10.64 2°42.89 249 14.7 246 8.5
2003-06-17 07:30:33 51°10.64 2°42.87 248.8 14.7 246 8.5
2003-06-17 07:30:37 51°10.63 2°42.85 248.8 14.7 246 8.5
2003-06-17 07:30:45 51°10.62 2°42.8 248.7 14.6 246 8.3
2003-06-17 07:30:49 51°10.61 2°42.78 249.2 14.7 246 8.4
2003-06-17 07:30:53 51°10.6 2°42.75 250.1 14.7 247 8.3
2003-06-17 07:30:57 51°10.6 2°42.73 251 14.7 248 8.3
2003-06-17 07:31:05 51°10.59 2°42.68 252 14.6 249 8.3
2003-06-17 07:31:09 51°10.58 2°42.66 252.5 14.6 249 8.3
2003-06-17 07:31:13 51°10.57 2°42.63 252.5 14.6 249 8.4
2003-06-17 07:31:19 51°10.57 2°42.6 252.3 14.6 249 8.3
2003-06-17 07:31:25 51°10.56 2°42.56 251.8 14.6 248 8.4
2003-06-17 07:31:29 51°10.55 2°42.54 250.9 14.6 248 8.3
2003-06-17 07:31:33 51°10.54 2°42.51 249.8 14.6 246 8.3
2003-06-17 07:31:37 51°10.54 2°42.49 249.7 14.7 247 8.3
2003-06-17 07:31:45 51°10.52 2°42.44 250 14.7 247 8.3
2003-06-17 07:31:49 51°10.52 2°42.42 250 14.6 247 8.3
2003-06-17 07:31:53 51°10.51 2°42.39 249.5 14.6 246 8.3
2003-06-17 07:31:57 51°10.5 2°42.37 249.3 14.6 247 8.3
2003-06-17 07:32:05 51°10.49 2°42.32 249.5 14.7 247 8.3
2003-06-17 07:32:09 51°10.49 2°42.3 249.9 14.7 247 8.3
2003-06-17 07:32:13 51°10.48 2°42.27 250.5 14.6 248 8.3
2003-06-17 07:32:19 51°10.47 2°42.24 251.3 14.6 249 8.3
2003-06-17 07:32:25 51°10.46 2°42.2 251.8 14.7 249 8.3
2003-06-17 07:32:29 51°10.46 2°42.18 252.4 14.7 250 8.2
2003-06-17 07:32:33 51°10.45 2°42.15 252.6 14.7 249 8.3
2003-06-17 07:32:39 51°10.44 2°42.12 252.7 14.7 250 8.3
2003-06-17 07:32:45 51°10.43 2°42.08 252.6 14.6 249 8.3
2003-06-17 07:32:49 51°10.43 2°42.06 251.7 14.6 249 8.3
2003-06-17 07:32:53 51°10.42 2°42.03 251.3 14.7 248 8.2
2003-06-17 07:32:57 51°10.42 2°42.01 250.9 14.8 248 8.3
2003-06-17 07:33:05 51°10.4 2°41.96 250.2 14.7 247 8.3
2003-06-17 07:33:09 51°10.4 2°41.94 250.1 14.6 247 8.3
2003-06-17 07:33:13 51°10.39 2°41.91 248.9 14.6 246 8.3
2003-06-17 07:33:17 51°10.38 2°41.89 248.8 14.7 246 8.3
2003-06-17 07:33:25 51°10.37 2°41.84 248 14.7 245 8.3
2003-06-17 07:33:29 51°10.36 2°41.82 248 14.7 246 8.3
2003-06-17 07:33:33 51°10.36 2°41.8 248.4 14.7 246 8.3
2003-06-17 07:33:37 51°10.35 2°41.77 249 14.7 247 8.3
2003-06-17 07:33:45 51°10.34 2°41.72 249.9 14.7 248 8.2
2003-06-17 07:33:49 51°10.33 2°41.7 250.7 14.7 248 8.3
2003-06-17 07:33:53 51°10.33 2°41.67 252.1 14.7 249 8.3
2003-06-17 07:33:59 51°10.32 2°41.64 252.8 14.7 250 8.2
2003-06-17 07:34:05 51°10.31 2°41.6 252.9 14.7 250 8.3
2003-06-17 07:34:09 51°10.3 2°41.58 252.8 14.7 250 8.3
2003-06-17 07:34:13 51°10.3 2°41.55 252.8 14.7 250 8.3
2003-06-17 07:34:17 51°10.29 2°41.53 252.2 14.7 249 8.3
2003-06-17 07:34:25 51°10.28 2°41.48 251.4 14.8 248 8.4
2003-06-17 07:34:29 51°10.27 2°41.46 249.9 14.8 247 8.3
2003-06-17 07:34:33 51°10.27 2°41.43 249.1 14.8 247 8.4
2003-06-17 07:34:37 51°10.26 2°41.41 249.1 14.8 247 8.3
2003-06-17 07:34:45 51°10.25 2°41.36 248.4 14.8 246 8.4
2003-06-17 07:34:49 51°10.24 2°41.34 248.2 14.9 246 8.3
2003-06-17 07:34:53 51°10.23 2°41.31 247.8 14.8 245 8.3
2003-06-17 07:34:59 51°10.22 2°41.28 248 14.8 246 8.4
2003-06-17 07:35:05 51°10.21 2°41.24 248.4 14.8 246 8.3
2003-06-17 07:35:09 51°10.21 2°41.22 249.2 14.8 247 8.4
2003-06-17 07:35:13 51°10.2 2°41.19 250.6 14.8 249 8.4
2003-06-17 07:35:19 51°10.19 2°41.16 251.4 14.8 249 8.3
2003-06-17 07:35:25 51°10.18 2°41.12 251.9 14.8 250 8.4
2003-06-17 07:35:29 51°10.18 2°41.1 252.4 14.8 250 8.4
2003-06-17 07:35:33 51°10.17 2°41.07 252.4 14.8 249 8.4
2003-06-17 07:35:39 51°10.16 2°41.03 251.6 14.8 249 8.4
2003-06-17 07:35:45 51°10.15 2°41 250.9 14.8 248 8.4
2003-06-17 07:35:49 51°10.15 2°40.97 250.3 14.8 247 8.3
2003-06-17 07:35:53 51°10.14 2°40.95 249 14.8 246 8.4
2003-06-17 07:35:59 51°10.13 2°40.91 248.6 14.8 246 8.4
2003-06-17 07:36:05 51°10.12 2°40.88 248.5 14.8 246 8.4
2003-06-17 07:36:09 51°10.11 2°40.85 248.5 14.8 246 8.4
2003-06-17 07:36:15 51°10.1 2°40.82 248.5 14.8 246 8.5
2003-06-17 07:36:19 51°10.1 2°40.79 249.5 14.8 248 8.4
2003-06-17 07:36:25 51°10.09 2°40.76 250.5 14.8 248 8.5
2003-06-17 07:36:29 51°10.08 2°40.73 251.1 14.8 249 8.5
2003-06-17 07:36:33 51°10.08 2°40.71 251.4 14.8 249 8.4
2003-06-17 07:36:37 51°10.07 2°40.68 251.8 14.8 250 8.4
2003-06-17 07:36:45 51°10.06 2°40.64 252 14.8 249 8.5
2003-06-17 07:36:49 51°10.05 2°40.61 251.8 14.8 249 8.5
2003-06-17 07:36:53 51°10.05 2°40.59 251.1 14.8 248 8.4
2003-06-17 07:36:57 51°10.04 2°40.56 250.3 14.8 248 8.5
2003-06-17 07:37:05 51°10.03 2°40.51 249.3 14.8 247 8.5
2003-06-17 07:37:09 51°10.02 2°40.49 249.2 14.8 247 8.5
2003-06-17 07:37:13 51°10.01 2°40.47 248.6 14.8 246 8.5
2003-06-17 07:37:17 51°10.01 2°40.44 248.2 14.8 246 8.6
2003-06-17 07:37:25 51°9.99 2°40.39 248.1 14.8 246 8.5
2003-06-17 07:37:29 51°9.99 2°40.37 248.4 14.8 246 8.5
2003-06-17 07:37:33 51°9.98 2°40.35 249 14.8 247 8.5
2003-06-17 07:37:39 51°9.97 2°40.31 250.1 14.8 248 8.6
2003-06-17 07:37:45 51°9.96 2°40.27 250.9 14.8 249 8.5
2003-06-17 07:37:49 51°9.96 2°40.25 251.2 14.8 249 8.5
2003-06-17 07:37:53 51°9.95 2°40.23 251.6 14.8 249 8.6
2003-06-17 07:37:57 51°9.95 2°40.2 251.5 14.8 249 8.5
2003-06-17 07:38:05 51°9.93 2°40.15 250.7 14.8 248 8.5
2003-06-17 07:38:09 51°9.93 2°40.13 250.3 14.8 248 8.4
2003-06-17 07:38:13 51°9.92 2°40.1 249.6 14.8 247 8.6
2003-06-17 07:38:17 51°9.91 2°40.08 249 14.8 247 8.5
2003-06-17 07:38:25 51°9.9 2°40.03 248.3 14.8 246 8.6
2003-06-17 07:38:29 51°9.89 2°40.01 248.1 14.8 246 8.5
2003-06-17 07:38:33 51°9.89 2°39.98 248.3 14.8 247 8.6
2003-06-17 07:38:39 51°9.88 2°39.95 249.5 14.8 248 8.6
2003-06-17 07:38:45 51°9.87 2°39.91 250.2 14.8 248 8.5
2003-06-17 07:38:49 51°9.86 2°39.89 251 14.8 249 8.6
2003-06-17 07:38:53 51°9.86 2°39.86 251.7 14.8 249 8.6
2003-06-17 07:38:59 51°9.85 2°39.83 251.7 14.8 249 8.6
2003-06-17 07:39:05 51°9.84 2°39.79 251.1 14.8 248 8.5
2003-06-17 07:39:09 51°9.83 2°39.77 250.4 14.8 248 8.5
2003-06-17 07:39:13 51°9.83 2°39.74 249.7 14.8 247 8.5
2003-06-17 07:39:17 51°9.82 2°39.72 249.4 14.8 247 8.6
2003-06-17 07:39:25 51°9.81 2°39.67 248.8 14.8 246 8.6
2003-06-17 07:39:29 51°9.8 2°39.65 249 14.8 247 8.6
2003-06-17 07:39:33 51°9.79 2°39.62 249.3 14.8 247 8.5
2003-06-17 07:39:37 51°9.79 2°39.6 249.9 14.8 248 8.6
2003-06-17 07:39:45 51°9.78 2°39.55 250.7 14.8 249 8.6
2003-06-17 07:39:49 51°9.77 2°39.52 251.4 14.8 249 8.6
2003-06-17 07:39:53 51°9.76 2°39.5 251.9 14.8 250 8.7
2003-06-17 07:39:57 51°9.76 2°39.48 252.1 14.8 249 8.5
2003-06-17 07:40:05 51°9.75 2°39.43 251.8 14.8 249 8.6
2003-06-17 07:40:09 51°9.74 2°39.4 251.1 14.8 248 8.6
2003-06-17 07:40:13 51°9.73 2°39.38 250.4 14.8 248 8.6
2003-06-17 07:40:17 51°9.73 2°39.35 249.6 14.8 247 8.6
2003-06-17 07:40:25 51°9.72 2°39.31 249.1 14.8 247 8.6
2003-06-17 07:40:29 51°9.71 2°39.28 248.3 14.8 246 8.7
2003-06-17 07:40:33 51°9.7 2°39.26 248.7 14.8 247 8.6
2003-06-17 07:40:39 51°9.69 2°39.22 248.7 14.8 246 8.6
2003-06-17 07:40:45 51°9.68 2°39.19 249.7 14.8 248 8.7
2003-06-17 07:40:49 51°9.68 2°39.16 250.2 14.9 248 8.6
2003-06-17 07:40:53 51°9.67 2°39.14 250.7 14.9 248 8.7
2003-06-17 07:40:57 51°9.67 2°39.11 251.3 14.9 249 8.8
2003-06-17 07:41:05 51°9.65 2°39.06 251.7 14.8 249 8.7
2003-06-17 07:41:09 51°9.65 2°39.04 251.7 14.9 249 8.7
2003-06-17 07:41:13 51°9.64 2°39.01 251.6 14.9 249 8.8
2003-06-17 07:41:17 51°9.64 2°38.99 250.4 14.9 247 8.7
2003-06-17 07:41:25 51°9.62 2°38.94 249.7 14.9 247 8.7
2003-06-17 07:41:29 51°9.62 2°38.92 249.5 14.9 247 8.8
2003-06-17 07:41:33 51°9.61 2°38.89 248.8 14.9 246 8.9
2003-06-17 07:41:39 51°9.6 2°38.86 248.7 14.9 247 8.9
2003-06-17 07:41:45 51°9.59 2°38.82 248.7 14.9 246 8.9
2003-06-17 07:41:49 51°9.58 2°38.8 248.9 14.9 247 8.9
2003-06-17 07:41:53 51°9.58 2°38.77 249.6 14.9 248 8.9
2003-06-17 07:41:59 51°9.57 2°38.74 250.4 14.9 248 9
2003-06-17 07:42:05 51°9.56 2°38.7 251.4 14.5 250 9
2003-06-17 07:42:09 51°9.55 2°38.68 251.8 14.4 249 8.9
2003-06-17 07:42:13 51°9.55 2°38.65 252.1 14.5 250 9
2003-06-17 07:42:17 51°9.54 2°38.63 251.9 14.4 249 9
2003-06-17 07:42:25 51°9.53 2°38.58 251.4 14.2 249 9.1
2003-06-17 07:42:29 51°9.53 2°38.56 250.6 14.1 248 9.1
2003-06-17 07:42:33 51°9.52 2°38.53 250.2 14 248 9.1
2003-06-17 07:42:37 51°9.51 2°38.51 249.2 13.8 247 9
2003-06-17 07:42:45 51°9.5 2°38.47 249.2 13.7 247 9.1
2003-06-17 07:42:49 51°9.5 2°38.45 249.2 13.7 247 9
2003-06-17 07:42:53 51°9.49 2°38.42 249.6 13.7 248 9
2003-06-17 07:42:57 51°9.48 2°38.4 249.9 13.6 248 9.2
2003-06-17 07:43:05 51°9.47 2°38.36 250.8 13.5 249 9.1
2003-06-17 07:43:09 51°9.47 2°38.33 252.3 13.5 250 9.1
2003-06-17 07:43:13 51°9.46 2°38.31 253.9 13.5 252 9.1
2003-06-17 07:43:19 51°9.46 2°38.28 254.7 13.5 252 9.1
2003-06-17 07:43:25 51°9.45 2°38.24 255.5 13.3 253 9.2
2003-06-17 07:43:29 51°9.45 2°38.22 255.9 13 253 9.2
2003-06-17 07:43:33 51°9.44 2°38.2 256 12.8 253 9.2
2003-06-17 07:43:37 51°9.44 2°38.18 255.8 12.7 253 9.1
2003-06-17 07:43:45 51°9.43 2°38.14 256 12.5 253 9.2
2003-06-17 07:43:49 51°9.43 2°38.11 256 12.4 253 9.3
2003-06-17 07:43:53 51°9.42 2°38.09 256 12.2 253 9.2
2003-06-17 07:43:57 51°9.42 2°38.07 256 12.2 253 9.2
2003-06-17 07:44:05 51°9.41 2°38.03 255.7 12.1 253 9.2
2003-06-17 07:44:09 51°9.41 2°38.01 255.7 12 253 9.3
2003-06-17 07:44:13 51°9.4 2°37.99 255.8 12 253 9.3
2003-06-17 07:44:19 51°9.4 2°37.96 256.3 11.9 254 9.3
2003-06-17 07:44:25 51°9.39 2°37.93 256.6 11.9 254 9.3
2003-06-17 07:44:29 51°9.39 2°37.91 257.3 11.8 255 9.3
2003-06-17 07:44:33 51°9.38 2°37.89 257.7 11.8 255 9.3
2003-06-17 07:44:39 51°9.38 2°37.86 258 11.8 255 9.4
2003-06-17 07:44:45 51°9.37 2°37.83 257.8 11.8 255 9.3
2003-06-17 07:44:49 51°9.37 2°37.81 257 11.7 254 9.3
2003-06-17 07:44:53 51°9.37 2°37.79 256 11.7 253 9.4
2003-06-17 07:44:57 51°9.36 2°37.77 254.8 11.7 252 9.4
2003-06-17 07:45:05 51°9.35 2°37.73 253.7 11.7 251 9.4
2003-06-17 07:45:09 51°9.35 2°37.71 252.7 11.4 250 9.4
2003-06-17 07:45:13 51°9.35 2°37.7 252 11 250 9.4
2003-06-17 07:45:17 51°9.34 2°37.68 251.5 10.4 249 9.5
2003-06-17 07:45:25 51°9.33 2°37.65 251.3 9.8 250 9.5
2003-06-17 07:45:29 51°9.33 2°37.63 250.9 9.4 248 9.5
2003-06-17 07:45:33 51°9.33 2°37.62 250.4 9.1 250 9.5
2003-06-17 07:45:37 51°9.32 2°37.6 249.7 8.7 247 9.5
2003-06-17 07:45:45 51°9.32 2°37.57 249.4 8.3 249 9.4
2003-06-17 07:45:49 51°9.31 2°37.56 249 8.1 247 9.5
2003-06-17 07:45:53 51°9.31 2°37.55 249.4 7.8 249 9.6
2003-06-17 07:45:57 51°9.31 2°37.53 250.2 7.5 249 9.6
2003-06-17 07:46:05 51°9.3 2°37.51 251.3 7.2 250 9.6
2003-06-17 07:46:09 51°9.3 2°37.5 252.8 7 251 9.5
2003-06-17 07:46:13 51°9.3 2°37.49 254.6 6.8 252 9.6
2003-06-17 07:46:19 51°9.29 2°37.47 256.3 6.7 254 9.6
2003-06-17 07:46:25 51°9.29 2°37.45 257.4 6.4 254 9.6
2003-06-17 07:46:29 51°9.29 2°37.44 257.8 6.3 255 9.7
2003-06-17 07:46:33 51°9.29 2°37.43 257.8 6.1 254 9.6
2003-06-17 07:46:37 51°9.29 2°37.42 257.4 6 255 9.6
2003-06-17 07:46:45 51°9.28 2°37.4 256.6 5.8 254 9.6
2003-06-17 07:46:49 51°9.28 2°37.39 255.8 5.7 253 9.6
2003-06-17 07:46:53 51°9.28 2°37.38 254.8 5.6 252 9.7
2003-06-17 07:46:57 51°9.28 2°37.37 253.3 5.5 252 9.7
2003-06-17 07:47:05 51°9.27 2°37.36 251.8 5.4 250 9.7
2003-06-17 07:47:09 51°9.27 2°37.35 250.4 5.3 250 9.7
2003-06-17 07:47:13 51°9.27 2°37.34 248.7 5.1 248 9.7
2003-06-17 07:47:19 51°9.26 2°37.33 246.9 5.1 248 9.7
2003-06-17 07:47:25 51°9.26 2°37.31 244.8 4.9 246 9.7
2003-06-17 07:47:29 51°9.26 2°37.31 242.2 4.8 244 9.6
2003-06-17 07:47:33 51°9.26 2°37.3 239.4 4.7 242 9.7
2003-06-17 07:47:39 51°9.25 2°37.29 236.4 4.6 241 9.7
2003-06-17 07:47:45 51°9.25 2°37.28 233.4 4.4 238 9.6
2003-06-17 07:47:49 51°9.25 2°37.27 230.3 4.2 235 9.6
2003-06-17 07:47:53 51°9.24 2°37.27 227.5 4.2 234 9.6
2003-06-17 07:47:57 51°9.24 2°37.26 225.2 4 231 9.6
2003-06-17 07:48:05 51°9.24 2°37.25 221.9 3.9 230 9.6
2003-06-17 07:48:09 51°9.23 2°37.25 219.2 3.8 228 9.6
2003-06-17 07:48:13 51°9.23 2°37.24 216.5 3.7 227 9.5
2003-06-17 07:48:17 51°9.23 2°37.24 213.9 3.6 224 9.5
2003-06-17 07:48:25 51°9.22 2°37.23 211.3 3.5 223 9.5
2003-06-17 07:48:29 51°9.22 2°37.22 208.6 3.4 221 9.5
2003-06-17 07:48:33 51°9.22 2°37.22 206.5 3.4 221 9.4
2003-06-17 07:48:37 51°9.21 2°37.22 203.4 3.3 217 9.4
2003-06-17 07:48:45 51°9.21 2°37.21 200.8 3.2 216 9.4
2003-06-17 07:48:49 51°9.2 2°37.21 198.3 3.1 215 9.4
2003-06-17 07:48:53 51°9.2 2°37.2 195.7 3.1 215 9.3
2003-06-17 07:48:57 51°9.2 2°37.2 193.3 3 212 9.3
2003-06-17 07:49:05 51°9.19 2°37.2 190.8 2.9 211 9.3
2003-06-17 07:49:09 51°9.19 2°37.19 188.5 2.8 209 9.2
2003-06-17 07:49:13 51°9.19 2°37.19 186 2.8 208 9.2
2003-06-17 07:49:19 51°9.18 2°37.19 183.6 2.7 206 9.2
2003-06-17 07:49:25 51°9.18 2°37.19 181.3 2.6 205 9.2
2003-06-17 07:49:29 51°9.18 2°37.18 179.3 2.6 203 9.2
2003-06-17 07:49:33 51°9.17 2°37.18 176.5 2.5 202 9.1
2003-06-17 07:49:37 51°9.17 2°37.18 174.2 2.4 200 9.1
2003-06-17 07:49:45 51°9.17 2°37.18 172 2.4 199 9
2003-06-17 07:49:49 51°9.16 2°37.18 170.3 2.3 198 9.1
2003-06-17 07:49:53 51°9.16 2°37.17 167.5 2.3 196 9
2003-06-17 07:49:57 51°9.16 2°37.17 165.2 2.2 195 8.9
2003-06-17 07:50:05 51°9.16 2°37.17 162.8 2.2 193 8.9
2003-06-17 07:50:09 51°9.15 2°37.17 160.5 2.1 192 8.9
2003-06-17 07:50:13 51°9.15 2°37.17 158.8 2 191 8.8
2003-06-17 07:50:19 51°9.15 2°37.17 156.4 2 189 8.8
2003-06-17 07:50:25 51°9.14 2°37.17 153.5 1.9 188 8.8
2003-06-17 07:50:29 51°9.14 2°37.17 151.1 1.9 187 8.8
2003-06-17 07:50:33 51°9.14 2°37.17 148.7 1.8 185 8.8
2003-06-17 07:50:39 51°9.14 2°37.17 146.2 1.8 185 8.8
2003-06-17 07:50:45 51°9.13 2°37.17 143.8 1.7 182 8.8
2003-06-17 07:50:49 51°9.13 2°37.17 141.4 1.6 180 8.8
2003-06-17 07:50:53 51°9.13 2°37.17 139.5 1.6 180 8.6
2003-06-17 07:50:57 51°9.13 2°37.17 136.6 1.5 177 8.7
2003-06-17 07:51:05 51°9.13 2°37.17 134.5 1.4 175 8.7
2003-06-17 07:51:09 51°9.12 2°37.17 132.3 1.4 175 8.7
2003-06-17 07:51:13 51°9.12 2°37.17 129.6 1.3 173 8.7
2003-06-17 07:51:17 51°9.12 2°37.17 127.1 1.3 170 8.7
2003-06-17 07:51:25 51°9.12 2°37.17 124.9 1.2 169 8.6
2003-06-17 07:51:29 51°9.12 2°37.17 123 1.2 167 8.6
2003-06-17 07:51:33 51°9.12 2°37.17 120.7 1.1 165 8.6
2003-06-17 07:51:37 51°9.12 2°37.17 118 1.1 166 8.5
2003-06-17 07:51:45 51°9.11 2°37.17 115.8 1 161 8.6
2003-06-17 07:51:49 51°9.11 2°37.17 113.3 1 160 8.5
2003-06-17 07:51:53 51°9.11 2°37.17 111.7 0.9 158 8.6
2003-06-17 07:51:59 51°9.11 2°37.17 108.8 0.8 154 8.6
2003-06-17 07:52:05 51°9.11 2°37.18 107 0.8 152 8.6
2003-06-17 07:52:09 51°9.11 2°37.18 104.6 0.8 151 8.5
2003-06-17 07:52:13 51°9.11 2°37.18 101.9 0.7 145 8.6
2003-06-17 07:52:17 51°9.11 2°37.18 99.6 0.6 143 8.5
2003-06-17 07:52:25 51°9.11 2°37.18 97.2 0.6 135 8.5
2003-06-17 07:52:29 51°9.11 2°37.18 94.9 0.6 138 8.4
2003-06-17 07:52:35 51°9.11 2°37.18 93.1 0.5 132 8.5
2003-06-17 07:52:37 51°9.11 2°37.18 90.7 0.5 122 8.4
2003-06-17 07:52:45 51°9.1 2°37.18 88.4 0.4 121 8.5
2003-06-17 07:52:49 51°9.1 2°37.18 85.6 0.4 110 8.5
2003-06-17 07:52:53 51°9.1 2°37.18 83.6 0.4 103 8.6
2003-06-17 07:52:59 51°9.1 2°37.18 81.2 0.4 92 8.5
2003-06-17 07:53:05 51°9.1 2°37.19 78.4 0.4 83 8.5
2003-06-17 07:53:09 51°9.1 2°37.19 76.4 0.4 75 8.5
2003-06-17 07:53:13 51°9.1 2°37.19 74.1 0.3 64 8.5
2003-06-17 07:53:19 51°9.11 2°37.19 71.2 0.4 62 8.5
2003-06-17 07:53:25 51°9.11 2°37.19 69.3 0.4 48 8.4
2003-06-17 07:53:29 51°9.11 2°37.19 67 0.4 37 8.4
2003-06-17 07:53:33 51°9.11 2°37.19 64.7 0.4 36 8.5
2003-06-17 07:53:39 51°9.11 2°37.19 62 0.5 29 8.5
2003-06-17 07:53:45 51°9.11 2°37.19 60.2 0.6 24 8.6
2003-06-17 07:53:49 51°9.11 2°37.19 58.9 0.6 22 8.5
2003-06-17 07:53:53 51°9.11 2°37.19 57.6 0.6 21 8.6
2003-06-17 07:53:59 51°9.11 2°37.19 56.5 0.7 20 8.6
2003-06-17 07:54:05 51°9.11 2°37.19 55.6 0.7 24 8.5
2003-06-17 07:54:09 51°9.11 2°37.19 55.1 0.7 18 8.5
2003-06-17 07:54:15 51°9.11 2°37.19 55.1 0.7 24 8.4
2003-06-17 07:54:19 51°9.11 2°37.19 55.1 0.8 21 8.5
2003-06-17 07:54:25 51°9.12 2°37.2 55.8 0.8 25 8.5
2003-06-17 07:54:29 51°9.12 2°37.2 56.7 0.8 25 8.6
2003-06-17 07:54:33 51°9.12 2°37.2 57.8 0.8 26 8.6
2003-06-17 07:54:37 51°9.12 2°37.2 59 0.8 29 8.7
2003-06-17 07:54:45 51°9.12 2°37.2 60.9 0.8 31 8.6
2003-06-17 07:54:49 51°9.12 2°37.2 62.2 0.8 37 8.6
2003-06-17 07:54:53 51°9.12 2°37.2 63.7 0.8 37 8.6
2003-06-17 07:54:57 51°9.12 2°37.2 65.4 0.8 42 8.6
2003-06-17 07:55:05 51°9.12 2°37.2 67.4 0.8 47 8.6
2003-06-17 07:55:09 51°9.12 2°37.2 69 0.8 51 8.6
2003-06-17 07:55:13 51°9.12 2°37.2 70.5 0.8 51 8.6
2003-06-17 07:55:17 51°9.12 2°37.21 72.1 0.8 58 8.6
2003-06-17 07:55:25 51°9.12 2°37.21 73 0.8 58 8.6
2003-06-17 07:55:29 51°9.13 2°37.21 74 0.8 62 8.6
2003-06-17 07:55:33 51°9.13 2°37.21 75 0.8 64 8.5
2003-06-17 07:55:39 51°9.13 2°37.21 76.2 0.8 66 8.6
2003-06-17 07:55:45 51°9.13 2°37.21 77.1 0.8 68 8.7
2003-06-17 07:55:49 51°9.13 2°37.22 78 0.8 72 8.6
2003-06-17 07:55:53 51°9.13 2°37.22 78.7 0.8 74 8.7
2003-06-17 07:55:57 51°9.13 2°37.22 79.2 0.8 73 8.6
2003-06-17 07:56:05 51°9.13 2°37.22 79.8 0.9 75 8.6
2003-06-17 07:56:09 51°9.13 2°37.22 80.1 0.9 77 8.6
2003-06-17 07:56:13 51°9.13 2°37.22 80.3 0.9 76 8.6
2003-06-17 07:56:17 51°9.13 2°37.23 80.5 0.9 77 8.6
2003-06-17 07:56:25 51°9.13 2°37.23 80.6 0.9 79 8.6
2003-06-17 07:56:29 51°9.13 2°37.23 80.8 0.9 78 8.6
2003-06-17 07:56:33 51°9.13 2°37.23 81.2 1 80 8.6
2003-06-17 07:56:39 51°9.13 2°37.24 81.7 1 80 8.6
2003-06-17 07:56:45 51°9.13 2°37.24 82.3 1 85 8.7
2003-06-17 07:56:49 51°9.13 2°37.24 83.4 1 84 8.7
2003-06-17 07:56:53 51°9.13 2°37.24 84.6 1 86 8.6
2003-06-17 07:56:59 51°9.13 2°37.24 86 1 89 8.6
2003-06-17 07:57:05 51°9.13 2°37.25 87.5 1 93 8.5
2003-06-17 07:57:09 51°9.13 2°37.25 89.1 1 95 8.6
2003-06-17 07:57:13 51°9.13 2°37.25 90.7 1 97 8.6
2003-06-17 07:57:17 51°9.13 2°37.25 92.2 1 102 8.6
2003-06-17 07:57:25 51°9.13 2°37.26 93.9 1 106 8.6
2003-06-17 07:57:29 51°9.13 2°37.26 95.5 1 107 8.6
2003-06-17 07:57:33 51°9.13 2°37.26 97.1 1.1 110 8.6
2003-06-17 07:57:37 51°9.13 2°37.26 98.8 1.1 112 8.5
2003-06-17 07:57:45 51°9.13 2°37.26 100.2 1.1 116 8.5
2003-06-17 07:57:49 51°9.13 2°37.27 100.9 1.1 115 8.5
2003-06-17 07:57:53 51°9.13 2°37.27 101.2 1.1 120 8.4
2003-06-17 07:57:57 51°9.13 2°37.27 101.2 1 117 8.6
2003-06-17 07:58:05 51°9.12 2°37.27 100.8 1 116 8.5
2003-06-17 07:58:09 51°9.12 2°37.27 100 1.1 116 8.5
2003-06-17 07:58:13 51°9.12 2°37.28 98.7 1 112 8.6
2003-06-17 07:58:19 51°9.12 2°37.28 97.1 1 112 8.5
2003-06-17 07:58:25 51°9.12 2°37.28 95.3 1 110 8.5
2003-06-17 07:58:29 51°9.12 2°37.28 93.6 0.9 104 8.6
2003-06-17 07:58:33 51°9.12 2°37.28 91.9 0.9 103 8.5
2003-06-17 07:58:37 51°9.12 2°37.29 90.2 0.9 103 8.5
2003-06-17 07:58:45 51°9.12 2°37.29 88.5 0.8 97 8.4
2003-06-17 07:58:49 51°9.12 2°37.29 86.7 0.8 97 8.4
2003-06-17 07:58:55 51°9.12 2°37.29 84.9 0.8 90 8.5
2003-06-17 07:58:57 51°9.12 2°37.29 83.3 0.8 89 8.5
2003-06-17 07:59:05 51°9.12 2°37.3 81.5 0.7 85 8.4
2003-06-17 07:59:09 51°9.12 2°37.3 79.8 0.7 82 8.4
2003-06-17 07:59:13 51°9.12 2°37.3 78.3 0.7 78 8.4
2003-06-17 07:59:19 51°9.12 2°37.3 77.1 0.7 77 8.5
2003-06-17 07:59:25 51°9.12 2°37.3 76 0.7 73 8.5
2003-06-17 07:59:29 51°9.12 2°37.3 75.2 0.7 69 8.5
2003-06-17 07:59:33 51°9.12 2°37.3 74.4 0.7 72 8.5
2003-06-17 07:59:39 51°9.12 2°37.31 73.9 0.7 67 8.6
2003-06-17 07:59:45 51°9.12 2°37.31 73.2 0.6 67 8.5
2003-06-17 07:59:49 51°9.12 2°37.31 72.6 0.7 59 8.5
2003-06-17 07:59:53 51°9.12 2°37.31 72.2 0.7 65 8.5
2003-06-17 07:59:59 51°9.13 2°37.31 71.7 0.7 58 8.5
2003-06-17 08:00:05 51°9.13 2°37.31 71.3 0.7 60 8.5
2003-06-17 08:00:09 51°9.13 2°37.31 71 0.7 59 8.5
2003-06-17 08:00:13 51°9.13 2°37.31 70.7 0.7 57 8.6
2003-06-17 08:00:19 51°9.13 2°37.32 70.4 0.7 55 8.6
2003-06-17 08:00:25 51°9.13 2°37.32 70.3 0.7 58 8.5
2003-06-17 08:00:29 51°9.13 2°37.32 70.3 0.7 56 8.5
2003-06-17 08:00:35 51°9.13 2°37.32 70.2 0.7 59 8.5
2003-06-17 08:00:39 51°9.13 2°37.32 70.1 0.7 53 8.5
2003-06-17 08:00:45 51°9.13 2°37.32 70.1 0.7 58 8.6
2003-06-17 08:00:49 51°9.13 2°37.32 70.1 0.7 53 8.6
2003-06-17 08:00:53 51°9.13 2°37.32 70.1 0.7 58 8.5
2003-06-17 08:00:57 51°9.13 2°37.33 70.2 0.7 53 8.5
2003-06-17 08:01:05 51°9.13 2°37.33 70.3 0.7 53 8.5
2003-06-17 08:01:09 51°9.13 2°37.33 70.4 0.7 56 8.5
2003-06-17 08:01:13 51°9.13 2°37.33 70.5 0.7 56 8.5
2003-06-17 08:01:17 51°9.13 2°37.33 70.8 0.7 56 8.5
2003-06-17 08:01:25 51°9.13 2°37.33 71.1 0.7 55 8.5